AirNav   Free Bose Alto or Rondo audio sunglasses
 
 416 users online  

31FL Forever Florida Airport
Melbourne, Florida, USA

GOING TO MELBOURNE?


FAA INFORMATION EFFECTIVE 03 DECEMBER 2020

Location

FAA Identifier: 31FL
Lat/Long: 28-02-36.0690N 081-01-09.2270W
28-02.601150N 081-01.153783W
28.0433525,-81.0192297
(estimated)
Elevation: 54 ft. / 16 m (estimated)
Variation: 03W (1985)
From city: 22 miles W of MELBOURNE, FL
Time zone: UTC -5 (UTC -4 during Daylight Saving Time)
Zip code: 34773

Airport Operations

Airport use: Private use. Permission required prior to landing
Activation date: 06/1981
Control tower: no
ARTCC: JACKSONVILLE CENTER
FSS: SAINT PETERSBURG FLIGHT SERVICE STATION
Attendance: UNATNDD
Wind indicator: yes
Segmented circle: no

Nearby radio navigation aids

VOR radial/distance  VOR name  Freq  Var
MLBr267/20.7MELBOURNE VOR/DME110.0007W
ORLr151/34.3ORLANDO VORTAC112.2000E
TRVr315/35.6TREASURE VORTAC117.3007W

Airport Services

Runway Information

Runway 9/27

Dimensions: 3000 x 150 ft. / 914 x 46 m
Surface: turf
RUNWAY 9  RUNWAY 27
Traffic pattern: leftleft

Airport Ownership and Management from official FAA records

Ownership: Privately-owned
Owner: ALLEN BROUSARD CONSERVANCY INC
4755 N. KENANVILLE RD
ST CLOUD, FL 34773
Phone (407) 892-5010
Manager: CYNTHIA DAVIS
4755 N. KENANVILLE RD
ST CLOUD, FL 34773
Phone (407) 892-5010

Additional Remarks

FOR CD CTC ORLANDO APCH AT 407-852-7553.

Instrument Procedures

There are no published instrument procedures at 31FL.

Some nearby airports with instrument procedures:

KMLB - Melbourne International Airport (20 nm E)
KCOF - Patrick Air Force Base (25 nm NE)
KCOI - Merritt Island Airport (25 nm NE)
KISM - Kissimmee Gateway Airport (27 nm NW)
KMCO - Orlando International Airport (28 nm NW)
 
Loc | Ops | Rwys | IFR | FBO | Links
Com | Nav | Svcs | Stats | Notes


 
Area around 31FL (Forever Florida Airport)
 
Road maps at: MapQuest Bing Google
 
Aerial photo
WARNING: Photo may not be current or correct
Aerial photo of 31FL (Forever Florida Airport)
Photo courtesy of Skylar Schoemig

Do you have a better or more recent aerial photo of Forever Florida Airport that you would like to share? If so, please send us your photo.

 
Sectional chart

 
Airport distance calculator
Flying to Forever Florida Airport? Find the distance to fly.

From to 31FL

Sunrise and sunset
Times for 05-Dec-2020
 Local
(UTC-5)
 Zulu
(UTC)
Morning civil twilight06:3711:37
Sunrise07:0312:03
Sunset17:2722:27
Evening civil twilight17:5322:53

Current date and time
Zulu (UTC)  05-Dec-2020 08:15:54
Local (UTC-5)  05-Dec-2020 03:15:54
 
METAR
KMLB 
20nm E 
050753Z AUTO 22007KT 10SM CLR 19/17 A3002 RMK AO2 SLP165 T01940172
KCOF 
25nm NE 
050756Z AUTO 24006KT 10SM CLR 19/15 A3002 RMK AO2 SLP170 T01940146 $
KISM 
26nm NW 
050756Z AUTO 21003KT 10SM BKN049 18/17 A3004 RMK AO2 SLP173 T01780167 PNO $
KMCO 
28nm NW 
050753Z 20003KT 10SM BKN050 OVC250 17/16 A3003 RMK AO2 SLP168 T01720161
KAGR 
29nm SW 
050758Z AUTO 00000KT 10SM SCT031 SCT041 OVC049 17/16 A3003 RMK AO2 SLP170 T01720163 402490123 $
KX26 
31nm SE 
050755Z AUTO 21003KT 10SM CLR 18/16 A3003 RMK AO2 T01770162
KTIX 
31nm NE 
050147Z 19004KT 7SM BKN120 22/17 A3008
KX07 
33nm W 
050735Z AUTO 00000KT 10SM SCT031 BKN038 OVC049 A3005 RMK A01
KORL 
35nm NW 
050753Z AUTO 22003KT 10SM BKN047 19/17 A3003 RMK AO2 SLP172 T01940167
KXMR 
36nm NE 
050756Z AUTO 23004KT 10SM CLR 18/16 A3002 RMK AO2 SLP169 T01810159 $
TAF
KMLB 
20nm E 
050532Z 0506/0606 21005KT P6SM BKN150 FM051400 28008KT P6SM BKN015 BKN025 FM052000 02010KT P6SM SCT020 BKN250 FM060200 36004KT P6SM SCT050 BKN250
NOTAMs
Click for the latest NOTAMs
NOTAMs are issued by the DoD/FAA and will open in a separate window not controlled by AirNav.

 

 
 

Would you like to see your business listed on this page?

 If your business provides an interesting product or service to pilots, flight crews, aircraft, or users of the Forever Florida Airport, you should consider listing it here.  To start the listing process, click on the button below
 
Add a business
 

Other Pages about Forever Florida Airport

Update a link
 
Copyright © AirNav, LLC. All rights reserved. Privacy Policy  Contact